Aviation Digital Data Service (ADDS)

Output produced by METARs form (1006 UTC 23 October 2014)
found at http://aviationweather.gov/adds/metars/
 
METAR text: KBFM 230953Z 34005KT 10SM CLR 09/08 A3009 RMK AO2 SLP188 T00940078
Conditions at: KBFM (MOBILE/BROOKLEY , AL, US) observed 0953 UTC 23 October 2014
Temperature: 9.4°C (49°F)
Dewpoint: 7.8°C (46°F) [RH = 90%]
Pressure (altimeter): 30.09 inches Hg (1019.0 mb)
[Sea-level pressure: 1018.8 mb]
Winds: from the NNW (340 degrees) at 6 MPH (5 knots; 2.6 m/s)
Visibility: 10 or more miles (16+ km)
Ceiling: at least 12,000 feet AGL
Clouds: sky clear below 12,000 feet AGL
Weather: no significant weather observed at this time